createdAt,value
2023-05-24T00:00:33.299Z,6.45
2023-05-24T00:03:00.791Z,5.00
2023-05-24T00:05:31.301Z,5.72
2023-05-24T00:07:59.403Z,6.05
2023-05-24T00:10:27.027Z,6.32
2023-05-24T00:12:54.364Z,6.18
2023-05-24T00:15:21.739Z,6.60
2023-05-24T00:17:49.081Z,5.85
2023-05-24T00:20:17.273Z,6.38
2023-05-24T00:22:44.739Z,6.57
2023-05-24T00:25:12.084Z,6.43
2023-05-24T00:27:39.368Z,6.95
2023-05-24T00:30:07.498Z,6.68
2023-05-24T00:32:43.254Z,6.82
2023-05-24T00:35:11.130Z,6.72
2023-05-24T00:37:42.005Z,6.57
2023-05-24T00:40:10.155Z,6.88
2023-05-24T00:42:37.761Z,6.47
2023-05-24T00:45:05.596Z,6.90
2023-05-24T00:47:34.467Z,7.55
2023-05-24T00:50:02.421Z,7.18
2023-05-24T00:52:31.834Z,6.72
2023-05-24T00:54:59.519Z,6.43
2023-05-24T00:57:27.452Z,6.15
2023-05-24T00:59:56.669Z,6.90
2023-05-24T01:02:25.438Z,6.30
2023-05-24T01:04:52.768Z,6.38
2023-05-24T01:07:27.056Z,6.00
2023-05-24T01:12:55.470Z,6.32
2023-05-24T01:15:37.822Z,6.88
2023-05-24T01:18:26.242Z,6.28
2023-05-24T01:21:06.731Z,5.53
2023-05-24T01:23:44.551Z,6.40
2023-05-24T01:26:37.333Z,5.20
2023-05-24T01:29:05.249Z,6.43
2023-05-24T01:31:34.338Z,6.68
2023-05-24T01:34:01.876Z,6.55
2023-05-24T01:36:29.244Z,6.18
2023-05-24T01:38:56.682Z,6.45
2023-05-24T01:41:32.687Z,7.32
2023-05-24T01:44:24.350Z,7.35
2023-05-24T01:47:02.722Z,7.00
2023-05-24T01:49:38.346Z,7.60
2023-05-24T01:52:17.454Z,7.68
2023-05-24T01:54:49.180Z,7.45
2023-05-24T01:57:19.919Z,6.97
2023-05-24T01:59:48.292Z,6.18
2023-05-24T02:02:15.876Z,6.53
2023-05-24T02:04:43.480Z,6.40
2023-05-24T02:07:10.693Z,6.07
2023-05-24T02:09:38.318Z,6.88
2023-05-24T02:12:08.896Z,17.80
2023-05-24T02:14:38.007Z,7.85
2023-05-24T02:17:06.134Z,5.78
2023-05-24T02:19:36.892Z,6.00
2023-05-24T02:22:07.406Z,6.60
2023-05-24T02:24:35.132Z,7.43
2023-05-24T02:27:04.016Z,7.15
2023-05-24T02:29:31.318Z,6.28
2023-05-24T02:31:58.732Z,8.68
2023-05-24T02:34:28.827Z,12.70
2023-05-24T02:36:57.802Z,12.63
2023-05-24T02:39:25.205Z,8.02
2023-05-24T02:41:52.750Z,7.60
2023-05-24T02:44:19.966Z,13.48
2023-05-24T02:46:47.435Z,11.23
2023-05-24T02:49:14.873Z,8.82
2023-05-24T02:51:42.219Z,9.18
2023-05-24T02:54:09.562Z,10.02
2023-05-24T02:56:37.685Z,10.82
2023-05-24T02:59:05.162Z,10.60
2023-05-24T03:01:34.550Z,10.77
2023-05-24T03:04:03.260Z,14.20
2023-05-24T03:06:31.610Z,10.20
2023-05-24T03:08:59.441Z,21.70
2023-05-24T03:11:27.284Z,21.67
2023-05-24T03:13:54.622Z,10.43
2023-05-24T03:16:22.088Z,7.95
2023-05-24T03:18:55.290Z,7.72
2023-05-24T03:21:23.705Z,7.88
2023-05-24T03:23:51.162Z,8.02
2023-05-24T03:26:19.092Z,7.75
2023-05-24T03:28:47.684Z,8.05
2023-05-24T03:31:15.180Z,7.78
2023-05-24T03:33:42.603Z,7.03
2023-05-24T03:36:10.155Z,8.27
2023-05-24T03:38:37.751Z,7.88
2023-05-24T03:41:04.979Z,7.57
2023-05-24T03:43:34.643Z,7.43
2023-05-24T03:46:04.823Z,8.43
2023-05-24T03:48:32.145Z,7.93
2023-05-24T03:50:59.736Z,7.65
2023-05-24T03:53:27.038Z,8.48
2023-05-24T03:55:55.266Z,8.18
2023-05-24T03:58:23.013Z,7.28
2023-05-24T04:00:51.418Z,8.43
2023-05-24T04:03:21.875Z,8.13
2023-05-24T04:05:49.253Z,9.35
2023-05-24T04:08:16.616Z,8.00
2023-05-24T04:10:44.387Z,8.30
2023-05-24T04:13:12.951Z,8.52
2023-05-24T04:15:40.772Z,8.52
2023-05-24T04:18:08.284Z,7.90
2023-05-24T04:20:35.909Z,9.35
2023-05-24T04:23:03.616Z,8.98
2023-05-24T04:25:33.531Z,8.73
2023-05-24T04:28:02.559Z,8.57
2023-05-24T04:30:31.963Z,8.80
2023-05-24T04:32:59.453Z,8.88
2023-05-24T04:35:30.352Z,9.57
2023-05-24T04:37:59.859Z,8.38
2023-05-24T04:40:27.470Z,8.90
2023-05-24T04:42:54.709Z,9.00
2023-05-24T04:45:24.986Z,8.85
2023-05-24T04:47:52.869Z,10.20
2023-05-24T04:50:20.239Z,9.65
2023-05-24T04:52:47.504Z,9.30
2023-05-24T04:55:14.856Z,9.63
2023-05-24T04:57:42.211Z,9.35
2023-05-24T05:00:10.366Z,10.32
2023-05-24T05:02:38.535Z,9.85
2023-05-24T05:05:06.594Z,9.73
2023-05-24T05:07:34.066Z,9.90
2023-05-24T05:10:01.510Z,9.88
2023-05-24T05:12:31.438Z,10.27
2023-05-24T05:14:58.835Z,10.30
2023-05-24T05:17:26.109Z,10.15
2023-05-24T05:19:53.382Z,9.95
2023-05-24T05:22:20.591Z,10.00
2023-05-24T05:24:48.971Z,10.13
2023-05-24T05:27:16.263Z,9.93
2023-05-24T05:29:43.682Z,9.75
2023-05-24T05:32:11.117Z,9.80
2023-05-24T05:34:38.617Z,9.63
2023-05-24T05:37:06.182Z,10.40
2023-05-24T05:39:33.693Z,10.00
2023-05-24T05:42:02.452Z,10.40
2023-05-24T05:44:29.757Z,10.45
2023-05-24T05:46:57.032Z,10.98
2023-05-24T05:49:24.545Z,10.20
2023-05-24T05:51:53.218Z,10.15
2023-05-24T05:54:20.681Z,9.65
2023-05-24T05:56:48.479Z,9.25
2023-05-24T05:59:16.143Z,7.88
2023-05-24T06:01:47.558Z,7.13
2023-05-24T06:04:18.195Z,7.47
2023-05-24T06:06:49.636Z,7.80
2023-05-24T06:09:17.394Z,8.55
2023-05-24T06:11:45.201Z,8.77
2023-05-24T06:14:13.557Z,8.70
2023-05-24T06:16:43.599Z,8.40
2023-05-24T06:19:11.157Z,8.30
2023-05-24T06:21:38.478Z,10.38
2023-05-24T06:24:05.876Z,10.23
2023-05-24T06:26:33.235Z,10.73
2023-05-24T06:29:00.402Z,10.60
2023-05-24T06:31:27.708Z,11.38
2023-05-24T06:34:03.788Z,11.85
2023-05-24T06:36:34.302Z,10.68
2023-05-24T06:39:02.684Z,11.02
2023-05-24T06:41:29.959Z,10.63
2023-05-24T06:43:57.187Z,10.13
2023-05-24T06:46:24.575Z,10.52
2023-05-24T06:48:51.936Z,10.18
2023-05-24T06:51:19.642Z,10.00
2023-05-24T06:53:47.098Z,10.02
2023-05-24T06:56:15.247Z,9.75
2023-05-24T06:58:42.928Z,10.32
2023-05-24T07:01:10.920Z,10.10
2023-05-24T07:03:38.269Z,10.80
2023-05-24T07:06:05.640Z,10.38
2023-05-24T07:08:33.060Z,9.80
2023-05-24T07:11:00.471Z,9.00
2023-05-24T07:13:28.288Z,9.32
2023-05-24T07:15:55.790Z,9.52
2023-05-24T07:18:23.092Z,8.90
2023-05-24T07:20:50.633Z,8.68
2023-05-24T07:23:18.226Z,8.65
2023-05-24T07:25:45.593Z,8.52
2023-05-24T07:28:15.331Z,8.38
2023-05-24T07:30:42.660Z,8.65
2023-05-24T07:33:10.113Z,8.40
2023-05-24T07:35:38.626Z,8.65
2023-05-24T07:38:06.154Z,9.38
2023-05-24T07:40:33.410Z,7.88
2023-05-24T07:43:00.766Z,9.27
2023-05-24T07:45:28.269Z,9.02
2023-05-24T07:47:56.958Z,9.57
2023-05-24T07:50:24.523Z,10.20
2023-05-24T07:52:52.022Z,9.85
2023-05-24T07:55:19.615Z,9.73
2023-05-24T07:57:47.788Z,10.73
2023-05-24T08:00:16.523Z,11.13
2023-05-24T08:02:46.621Z,9.25
2023-05-24T08:05:14.793Z,9.98
2023-05-24T08:07:42.268Z,9.80
2023-05-24T08:10:13.998Z,11.57
2023-05-24T08:12:42.346Z,12.80
2023-05-24T08:15:10.270Z,13.18
2023-05-24T08:17:39.039Z,14.27
2023-05-24T08:20:09.027Z,14.93
2023-05-24T08:22:37.484Z,11.05
2023-05-24T08:25:06.282Z,11.60
2023-05-24T08:27:33.901Z,11.60
2023-05-24T08:30:02.017Z,11.75
2023-05-24T08:32:34.418Z,14.05
2023-05-24T08:35:18.608Z,13.43
2023-05-24T08:37:49.398Z,13.35
2023-05-24T08:40:17.948Z,13.85
2023-05-24T08:42:46.683Z,11.98
2023-05-24T08:45:15.859Z,13.95
2023-05-24T08:47:43.697Z,9.82
2023-05-24T08:50:11.372Z,10.85
2023-05-24T08:52:39.846Z,10.27
2023-05-24T08:55:08.004Z,12.98
2023-05-24T08:57:40.116Z,13.55
2023-05-24T09:00:11.439Z,10.80
2023-05-24T09:02:43.742Z,11.65
2023-05-24T09:05:14.524Z,12.27
2023-05-24T09:07:45.066Z,11.48
2023-05-24T09:10:13.200Z,13.43
2023-05-24T09:12:48.772Z,10.82
2023-05-24T09:15:16.091Z,10.35
2023-05-24T09:17:43.748Z,10.25
2023-05-24T09:20:11.952Z,9.07
2023-05-24T09:22:42.733Z,10.70
2023-05-24T09:25:13.518Z,11.65
2023-05-24T09:27:41.572Z,14.85
2023-05-24T09:30:10.739Z,11.32
2023-05-24T09:32:38.637Z,11.00
2023-05-24T09:35:11.339Z,11.93
2023-05-24T09:37:41.989Z,11.18
2023-05-24T09:40:19.215Z,9.43
2023-05-24T09:42:51.551Z,9.15
2023-05-24T09:45:19.104Z,9.30
2023-05-24T09:47:46.582Z,11.98
2023-05-24T09:50:17.527Z,10.63
2023-05-24T09:52:45.686Z,10.98
2023-05-24T09:55:17.581Z,10.43
2023-05-24T09:57:49.846Z,11.40
2023-05-24T10:00:23.292Z,10.60
2023-05-24T10:03:08.157Z,10.98
2023-05-24T10:05:37.041Z,10.65
2023-05-24T10:08:09.758Z,12.45
2023-05-24T10:10:37.239Z,11.65
2023-05-24T10:13:05.578Z,10.75
2023-05-24T10:15:32.819Z,9.85
2023-05-24T10:18:02.124Z,9.38
2023-05-24T10:20:30.245Z,11.13
2023-05-24T10:23:02.222Z,10.57
2023-05-24T10:25:32.829Z,10.07
2023-05-24T10:28:07.932Z,10.73
2023-05-24T10:30:43.359Z,9.35
2023-05-24T10:33:13.454Z,9.93
2023-05-24T10:35:43.150Z,8.27
2023-05-24T10:38:11.013Z,9.60
2023-05-24T10:40:44.475Z,8.43
2023-05-24T10:43:11.981Z,7.03
2023-05-24T10:45:42.198Z,6.55
2023-05-24T10:48:29.397Z,7.15
2023-05-24T10:50:56.779Z,6.60
2023-05-24T10:53:27.650Z,5.45
2023-05-24T10:55:57.451Z,5.57
2023-05-24T10:58:38.068Z,4.80
2023-05-24T11:01:13.896Z,4.07
2023-05-24T11:03:41.763Z,4.53
2023-05-24T11:06:10.095Z,5.25
2023-05-24T11:08:43.840Z,6.25
2023-05-24T11:11:25.674Z,5.40
2023-05-24T11:13:57.985Z,5.55
2023-05-24T11:16:40.403Z,4.72
2023-05-24T11:19:21.273Z,5.35
2023-05-24T11:21:51.224Z,5.30
2023-05-24T11:24:19.792Z,4.40
2023-05-24T11:26:47.532Z,4.45
2023-05-24T11:29:21.206Z,4.05
2023-05-24T11:32:05.039Z,4.15
2023-05-24T11:34:33.492Z,4.10
2023-05-24T11:37:02.068Z,4.53
2023-05-24T11:39:34.464Z,4.25
2023-05-24T11:42:05.057Z,4.28
2023-05-24T11:44:34.133Z,3.90
2023-05-24T11:47:02.649Z,2.88
2023-05-24T11:49:32.308Z,2.47
2023-05-24T11:52:01.084Z,2.90
2023-05-24T11:54:29.023Z,2.83
2023-05-24T11:56:56.642Z,2.05
2023-05-24T11:59:26.222Z,2.47
2023-05-24T12:02:05.927Z,2.35
2023-05-24T12:04:35.047Z,2.45
2023-05-24T12:07:03.290Z,2.40
2023-05-24T12:09:30.759Z,2.28
2023-05-24T12:11:58.835Z,1.90
2023-05-24T12:14:32.912Z,2.05
2023-05-24T12:17:03.752Z,1.57
2023-05-24T12:19:35.144Z,1.70
2023-05-24T12:22:07.683Z,1.70
2023-05-24T12:24:37.550Z,1.60
2023-05-24T12:27:09.172Z,2.05
2023-05-24T12:29:41.972Z,1.92
2023-05-24T12:32:15.147Z,1.60
2023-05-24T12:34:44.227Z,1.70
2023-05-24T12:37:14.017Z,2.17
2023-05-24T12:39:43.326Z,2.13
2023-05-24T12:42:16.305Z,2.10
2023-05-24T12:44:45.173Z,2.60
2023-05-24T12:47:12.966Z,2.50
2023-05-24T12:49:40.505Z,1.95
2023-05-24T12:52:07.890Z,2.75
2023-05-24T12:54:35.280Z,2.42
2023-05-24T12:57:03.452Z,2.67
2023-05-24T12:59:31.551Z,2.53
2023-05-24T13:01:58.836Z,2.67
2023-05-24T13:04:27.431Z,2.78
2023-05-24T13:06:55.592Z,2.60
2023-05-24T13:09:23.933Z,2.20
2023-05-24T13:11:52.885Z,2.90
2023-05-24T13:14:20.723Z,2.72
2023-05-24T13:16:49.013Z,2.47
2023-05-24T13:19:17.450Z,2.58
2023-05-24T13:21:45.698Z,2.47
2023-05-24T13:24:16.007Z,1.85
2023-05-24T13:26:45.003Z,2.40
2023-05-24T13:31:43.608Z,2.22
2023-05-24T13:34:11.616Z,2.55
2023-05-24T13:36:39.462Z,1.95
2023-05-24T13:41:41.639Z,2.55
2023-05-24T13:44:10.320Z,2.08
2023-05-24T13:46:39.252Z,2.50
2023-05-24T13:49:07.697Z,3.13
2023-05-24T13:51:35.416Z,2.90
2023-05-24T13:54:03.584Z,3.10
2023-05-24T13:56:33.203Z,2.85
2023-05-24T13:59:03.636Z,2.60
2023-05-24T14:01:32.047Z,2.90
2023-05-24T14:04:01.342Z,2.47
2023-05-24T14:06:28.775Z,3.42
2023-05-24T14:08:56.203Z,2.85
2023-05-24T14:11:24.945Z,3.05
2023-05-24T14:16:23.521Z,2.65
2023-05-24T14:18:51.835Z,2.78
2023-05-24T14:21:21.725Z,2.92
2023-05-24T14:23:49.828Z,2.88
2023-05-24T14:26:18.019Z,2.67
2023-05-24T14:28:45.464Z,2.53
2023-05-24T14:31:13.267Z,3.17
2023-05-24T14:33:40.805Z,3.22
2023-05-24T14:36:08.458Z,3.25
2023-05-24T14:38:36.283Z,3.00
2023-05-24T14:41:03.818Z,3.85
2023-05-24T14:43:31.418Z,3.42
2023-05-24T14:45:58.701Z,3.70
2023-05-24T14:48:26.031Z,3.17
2023-05-24T14:50:53.421Z,3.60
2023-05-24T14:53:20.837Z,3.13
2023-05-24T14:55:48.234Z,3.50
2023-05-24T14:58:15.818Z,3.25
2023-05-24T15:00:43.977Z,2.90
2023-05-24T15:03:13.112Z,3.15
2023-05-24T15:05:42.724Z,4.28
2023-05-24T15:08:11.626Z,3.42
2023-05-24T15:10:42.065Z,4.20
2023-05-24T15:13:09.709Z,4.18
2023-05-24T15:15:36.971Z,3.85
2023-05-24T15:18:04.868Z,4.15
2023-05-24T15:20:35.842Z,3.97
2023-05-24T15:23:03.876Z,3.35
2023-05-24T15:25:31.136Z,3.47
2023-05-24T15:27:58.393Z,4.00
2023-05-24T15:30:28.298Z,4.45
2023-05-24T15:32:56.020Z,4.55
2023-05-24T15:35:23.338Z,3.67
2023-05-24T15:37:50.728Z,3.95
2023-05-24T15:40:18.715Z,3.17
2023-05-24T15:42:47.912Z,3.95
2023-05-24T15:45:16.408Z,3.35
2023-05-24T15:47:43.778Z,2.97
2023-05-24T15:50:11.525Z,3.65
2023-05-24T15:52:38.884Z,4.40
2023-05-24T15:55:06.645Z,4.00
2023-05-24T15:57:33.843Z,3.80
2023-05-24T16:00:01.527Z,3.65
2023-05-24T16:02:30.447Z,3.95
2023-05-24T16:04:58.041Z,3.83
2023-05-24T16:07:25.341Z,3.97
2023-05-24T16:09:52.803Z,4.55
2023-05-24T16:12:20.412Z,3.17
2023-05-24T16:14:47.667Z,4.10
2023-05-24T16:17:17.668Z,3.28
2023-05-24T16:19:47.432Z,3.75
2023-05-24T16:22:15.122Z,3.70
2023-05-24T16:24:45.826Z,3.72
2023-05-24T16:27:13.229Z,3.97
2023-05-24T16:29:40.546Z,3.70
2023-05-24T16:32:08.707Z,4.13
2023-05-24T16:34:52.039Z,4.25
2023-05-24T16:37:23.187Z,4.40
2023-05-24T16:39:50.581Z,4.45
2023-05-24T16:42:17.763Z,4.60
2023-05-24T16:44:45.137Z,4.15
2023-05-24T16:47:12.420Z,4.70
2023-05-24T16:49:39.719Z,4.72
2023-05-24T16:52:07.141Z,4.35
2023-05-24T16:54:34.494Z,4.97
2023-05-24T16:57:02.486Z,4.50
2023-05-24T16:59:29.971Z,4.00
2023-05-24T17:01:57.355Z,4.90
2023-05-24T17:04:24.785Z,4.53
2023-05-24T17:06:51.981Z,5.10
2023-05-24T17:09:19.147Z,4.75
2023-05-24T17:11:46.889Z,5.35
2023-05-24T17:14:15.222Z,5.63
2023-05-24T17:16:42.610Z,5.35
2023-05-24T17:19:12.107Z,6.18
2023-05-24T17:21:39.509Z,6.55
2023-05-24T17:24:07.008Z,6.03
2023-05-24T17:26:34.697Z,5.03
2023-05-24T17:29:02.327Z,5.63
2023-05-24T17:31:29.837Z,7.03
2023-05-24T17:33:57.678Z,5.97
2023-05-24T17:36:24.949Z,5.50
2023-05-24T17:38:52.178Z,5.15
2023-05-24T17:41:19.387Z,5.70
2023-05-24T17:43:46.626Z,5.50
2023-05-24T17:46:14.246Z,6.65
2023-05-24T17:48:43.013Z,4.68
2023-05-24T17:51:11.025Z,5.25
2023-05-24T17:53:38.841Z,5.00
2023-05-24T17:56:08.019Z,4.00
2023-05-24T17:58:36.872Z,4.85
2023-05-24T18:01:07.157Z,4.82
2023-05-24T18:03:38.315Z,5.05
2023-05-24T18:06:07.146Z,5.07
2023-05-24T18:08:37.342Z,5.13
2023-05-24T18:11:08.693Z,5.47
2023-05-24T18:13:38.004Z,5.70
2023-05-24T18:16:06.717Z,6.18
2023-05-24T18:18:34.460Z,5.60
2023-05-24T18:21:01.748Z,6.00
2023-05-24T18:23:29.246Z,6.50
2023-05-24T18:26:00.619Z,6.32
2023-05-24T18:28:30.393Z,6.30
2023-05-24T18:30:57.647Z,6.75
2023-05-24T18:33:25.272Z,6.65
2023-05-24T18:35:52.660Z,6.43
2023-05-24T18:38:19.809Z,7.32
2023-05-24T18:40:47.342Z,7.70
2023-05-24T18:43:14.667Z,7.43
2023-05-24T18:45:42.487Z,7.90
2023-05-24T18:48:09.979Z,10.55
2023-05-24T18:50:37.436Z,11.27
2023-05-24T18:53:04.754Z,10.45
2023-05-24T18:55:32.006Z,11.45
2023-05-24T18:57:59.157Z,14.73
2023-05-24T19:00:26.862Z,14.00
2023-05-24T19:02:55.612Z,16.00
2023-05-24T19:05:23.170Z,13.77
2023-05-24T19:07:53.505Z,14.85
2023-05-24T19:10:21.127Z,11.40
2023-05-24T19:12:48.386Z,10.27
2023-05-24T19:15:15.764Z,10.95
2023-05-24T19:17:43.295Z,9.13
2023-05-24T19:20:11.588Z,9.00
2023-05-24T19:22:38.960Z,9.02
2023-05-24T19:25:06.633Z,9.50
2023-05-24T19:27:36.290Z,8.75
2023-05-24T19:30:05.531Z,10.95
2023-05-24T19:32:35.849Z,9.80
2023-05-24T19:35:03.366Z,8.85
2023-05-24T19:37:32.064Z,7.90
2023-05-24T19:40:00.562Z,7.38
2023-05-24T19:42:28.062Z,8.15
2023-05-24T19:44:55.226Z,7.38
2023-05-24T19:47:22.545Z,7.78
2023-05-24T19:49:49.953Z,8.20
2023-05-24T19:52:19.595Z,8.00
2023-05-24T19:54:50.033Z,7.90
2023-05-24T19:57:17.808Z,8.00
2023-05-24T19:59:45.168Z,10.25
2023-05-24T20:02:14.789Z,8.75
2023-05-24T20:04:46.138Z,9.00
2023-05-24T20:07:14.700Z,9.25
2023-05-24T20:09:42.013Z,7.82
2023-05-24T20:12:09.560Z,8.02
2023-05-24T20:14:37.061Z,7.45
2023-05-24T20:17:04.629Z,7.25
2023-05-24T20:19:32.012Z,10.27
2023-05-24T20:22:00.392Z,21.38
2023-05-24T20:24:27.996Z,32.28
2023-05-24T20:26:55.385Z,25.92
2023-05-24T20:29:25.257Z,15.50
2023-05-24T20:31:52.775Z,9.35
2023-05-24T20:34:20.034Z,11.15
2023-05-24T20:36:47.308Z,23.23
2023-05-24T20:39:17.484Z,20.20
2023-05-24T20:41:44.923Z,12.95
2023-05-24T20:44:12.291Z,9.63
2023-05-24T20:46:39.576Z,12.35
2023-05-24T20:49:07.597Z,9.02
2023-05-24T20:51:35.001Z,9.20
2023-05-24T20:54:03.927Z,9.90
2023-05-24T20:56:31.329Z,15.57
2023-05-24T20:59:00.055Z,17.02
2023-05-24T21:01:27.668Z,16.20
2023-05-24T21:03:55.164Z,16.00
2023-05-24T21:06:23.074Z,15.85
2023-05-24T21:08:50.432Z,13.52
2023-05-24T21:11:17.771Z,11.75
2023-05-24T21:13:45.306Z,12.38
2023-05-24T21:16:12.558Z,10.93
2023-05-24T21:18:39.875Z,10.43
2023-05-24T21:21:07.386Z,11.48
2023-05-24T21:23:34.697Z,12.65
2023-05-24T21:26:02.524Z,13.50
2023-05-24T21:28:29.719Z,12.63
2023-05-24T21:30:57.022Z,12.90
2023-05-24T21:33:24.408Z,10.63
2023-05-24T21:35:51.686Z,11.02
2023-05-24T21:38:19.171Z,14.18
2023-05-24T21:40:46.483Z,13.65
2023-05-24T21:43:13.750Z,18.05
2023-05-24T21:45:42.141Z,13.98
2023-05-24T21:48:10.096Z,13.15
2023-05-24T21:50:37.400Z,13.52
2023-05-24T21:53:04.742Z,19.45
2023-05-24T21:55:32.168Z,17.35
2023-05-24T21:57:59.418Z,12.85
2023-05-24T22:00:27.284Z,11.93
2023-05-24T22:02:54.728Z,15.60
2023-05-24T22:05:22.104Z,13.02
2023-05-24T22:07:49.338Z,13.50
2023-05-24T22:10:16.623Z,17.02
2023-05-24T22:12:43.980Z,17.05
2023-05-24T22:15:11.365Z,15.38
2023-05-24T22:17:41.149Z,14.27
2023-05-24T22:20:10.613Z,13.10
2023-05-24T22:22:48.254Z,13.18
2023-05-24T22:25:19.547Z,12.73
2023-05-24T22:27:48.937Z,13.48
2023-05-24T22:30:17.227Z,12.82
2023-05-24T22:32:44.734Z,14.27
2023-05-24T22:35:12.220Z,13.80
2023-05-24T22:37:39.543Z,13.60
2023-05-24T22:40:08.041Z,13.98
2023-05-24T22:42:35.466Z,15.02
2023-05-24T22:45:02.826Z,12.70
2023-05-24T22:47:33.460Z,13.55
2023-05-24T22:50:02.258Z,13.45
2023-05-24T22:52:34.385Z,12.77
2023-05-24T22:55:02.199Z,13.52
2023-05-24T22:57:32.946Z,12.63
2023-05-24T23:00:01.063Z,13.18
2023-05-24T23:02:30.292Z,13.25
2023-05-24T23:04:57.754Z,11.77
2023-05-24T23:07:27.669Z,11.57
2023-05-24T23:09:55.028Z,11.25
2023-05-24T23:12:22.356Z,10.68
2023-05-24T23:14:49.844Z,11.82
2023-05-24T23:17:20.365Z,11.63
2023-05-24T23:19:50.555Z,11.82
2023-05-24T23:22:23.644Z,12.38
2023-05-24T23:24:51.274Z,12.00
2023-05-24T23:27:18.985Z,11.60
2023-05-24T23:29:46.440Z,11.77
2023-05-24T23:32:13.756Z,11.75
2023-05-24T23:34:41.383Z,11.55
2023-05-24T23:37:08.925Z,10.70
2023-05-24T23:39:36.278Z,11.90
2023-05-24T23:42:06.881Z,12.75
2023-05-24T23:44:34.191Z,11.95
2023-05-24T23:47:02.230Z,11.25
2023-05-24T23:49:29.911Z,11.43
2023-05-24T23:51:57.594Z,11.10
2023-05-24T23:54:24.844Z,11.85
2023-05-24T23:56:52.319Z,11.55
2023-05-24T23:59:19.648Z,11.52
